Aérodrome :
LOGIN :

S'inscrire | Disclaimer

   EN    FR    IT 

 










Légende :    VFR   VFR Marginal   IFR   IFR Intensif   IFR Très Intensif
Visi : 
Plafond : 
>= 8 km
>= 3000ft
5 à 8 km
1000 à 3000 ft
1500m à 5 km
500 à 1000 ft
800 à 1500m
200 à 500 ft
< 800m
< 200 ft
Symboles :   Orages  Brouillard  Fortes neiges  Fortes précipitations  Vent > 20 kt
SIGMETs :   Divers  Orages  Givrage  Turbulence  Onde Orograph.  Cendres Volcan.







- Altitude de l'aérodrome : 183 ft
- Code IATA : HAJ


EDDV - Hanover/Langenhagen Int.

DERNIER METAR :
  • 231620Z 35003KT CAVOK 16/13 Q1023 NOSIG

METARs EXPIRÉS :
  • 231550Z 34003KT CAVOK 17/13 Q1023 NOSIG
  • 231520Z 34002KT CAVOK 17/13 Q1023 NOSIG
  • 231450Z 36002KT CAVOK 17/13 Q1023 NOSIG
  • 231420Z 36002KT 9999 FEW030 BKN050 17/13 Q1023 NOSIG
  • 231350Z VRB02KT 9999 FEW028 SCT060 18/12 Q1023 NOSIG
  • 231320Z 27004KT 220V330 9999 FEW015 SCT060 18/12 Q1023 NOSIG

TAF TAF EDDV
Valide du 23 à 12h jusqu'au 24 à 12h UTC


231100Z 2312/2412 34004KT 9999 FEW020
BECMG 2400/2403 4000 BR
BECMG 2405/2408 9999
BECMG 2407/2410 SCT008 BKN012
TEMPO 2408/2412 3500 -RADZ BKN008
Pas de NOTAMs connus pour ce terrain.



MET'MAP, la Météo Aéronautique d'un coup d'oeil ! - Copyright ORBIFLY Décembre 2007 - Disclaimer

ORBIFLY MET'MAP TEAM :

Programmation & Développement : Alexandra Zaïnal
Conception & Développement : Baudouin d'Aumeries
Co-Programmation & Développement : Marc-Olivier Méhu
Soutien technique & logistique : Manuel Goepfert

Contact : metmap@orbifly.com




SOURCES & CREDITS :

   NOAA